Aérodrome :
LOGIN :

S'inscrire | Disclaimer

   EN    FR    IT 

 










Légende :    VFR   VFR Marginal   IFR   IFR Intensif   IFR Très Intensif
Visi : 
Plafond : 
>= 8 km
>= 3000ft
5 à 8 km
1000 à 3000 ft
1500m à 5 km
500 à 1000 ft
800 à 1500m
200 à 500 ft
< 800m
< 200 ft
Symboles :   Orages  Brouillard  Fortes neiges  Fortes précipitations  Vent > 20 kt
SIGMETs :   Divers  Orages  Givrage  Turbulence  Onde Orograph.  Cendres Volcan.







- Altitude de l'aérodrome : 56 ft
- Code IATA : BZR
- Voir les cartes d'approche


LFMU - Beziers / Vias

DERNIER METAR :
  • 181900Z AUTO 11014KT 9999 BKN025 OVC041 14/10 Q1019 TEMPO 14015G25KT

METARs EXPIRÉS :
  • 181830Z AUTO 12012KT 9999 BKN025 BKN030 BKN037 14/09 Q1019 TEMPO 14015G25KT
  • 181800Z AUTO 12011KT 9999 SCT026 SCT033 BKN039 14/09 Q1020 TEMPO 14015G25KT
  • 181730Z AUTO 12009KT 9999 FEW026 BKN048 BKN056 14/09 Q1020 TEMPO 14015G25KT
  • 181700Z AUTO 12010KT 090V150 9999 BKN026 BKN037 OVC047 14/09 Q1020 TEMPO 14015G25KT
  • 181630Z AUTO 13011KT 9999 SCT027 BKN037 BKN048 14/09 Q1020 TEMPO 14015G25KT

TAF TAF LFMU
Valide du 18 à 15h jusqu'au 19 à 15h UTC


181400Z 1815/1915 14015KT 9999 BKN020
TEMPO 1815/1822 14015G25KT
BECMG 1823/1902 02010KT BKN008
BECMG 1910/1913 FEW010 SCT060
ATIS : +33 4 67 90 88 88
Pas de NOTAMs connus pour ce terrain.
2 SIGMETs publiés pour la FIR Marseille (LFMM) :
 
Turbulence forte
LFMM SIGMET 3 VALID 181600/182000 LFPW
LFMM MARSEILLE FIR/UIR SEV TURB FCST WI N4630 E00430 - N4630 E00530 - N4445 E00515 - N4445 E00430 - N4630 E00430 SFC/FL050 STNR NC=
Turbulence forte
LFMM SIGMET 2 VALID 181600/182000 LFPW
LFMM MARSEILLE FIR/UIR SEV TURB FCST WI N4300 E00230 - N4500 E00245 - N4430 E00400 - N4300 E00230 SFC/FL060 STNR WKN=



MET'MAP, la Météo Aéronautique d'un coup d'oeil ! - Copyright ORBIFLY Décembre 2007 - Disclaimer

ORBIFLY MET'MAP TEAM :

Programmation & Développement : Alexandra Zaïnal
Conception & Développement : Baudouin d'Aumeries
Co-Programmation & Développement : Marc-Olivier Méhu
Soutien technique & logistique : Manuel Goepfert

Contact : metmap@orbifly.com




SOURCES & CREDITS :

   NOAA